createdAt,value
2023-03-03T00:01:04.229Z,58.13
2023-03-03T00:10:39.352Z,57.82
2023-03-03T00:20:11.517Z,58.88
2023-03-03T00:29:45.039Z,59.48
2023-03-03T00:39:19.560Z,60.60
2023-03-03T00:48:50.437Z,63.74
2023-03-03T00:58:24.735Z,64.71
2023-03-03T01:07:55.490Z,66.38
2023-03-03T01:17:28.549Z,68.90
2023-03-03T01:27:02.170Z,70.98
2023-03-03T01:36:35.255Z,72.96
2023-03-03T01:46:09.879Z,75.27
2023-03-03T01:55:41.410Z,75.06
2023-03-03T02:05:14.603Z,77.08
2023-03-03T02:14:47.604Z,76.95
2023-03-03T02:24:22.453Z,78.15
2023-03-03T02:33:54.311Z,79.73
2023-03-03T02:43:27.208Z,80.48
2023-03-03T02:53:00.555Z,81.86
2023-03-03T03:02:33.928Z,83.41
2023-03-03T03:12:07.164Z,83.81
2023-03-03T03:21:40.090Z,83.67
2023-03-03T03:31:13.171Z,84.85
2023-03-03T03:40:45.977Z,85.14
2023-03-03T03:50:19.005Z,86.29
2023-03-03T03:59:53.753Z,86.43
2023-03-03T04:09:26.453Z,86.52
2023-03-03T04:19:02.677Z,87.38
2023-03-03T04:28:30.981Z,87.45
2023-03-03T04:38:04.049Z,87.04
2023-03-03T04:47:37.440Z,86.70
2023-03-03T04:57:11.081Z,86.76
2023-03-03T05:06:46.209Z,86.65
2023-03-03T05:16:17.387Z,87.10
2023-03-03T05:25:50.916Z,88.45
2023-03-03T05:35:23.164Z,88.87
2023-03-03T05:44:55.942Z,89.02
2023-03-03T05:54:28.112Z,89.15
2023-03-03T06:04:01.439Z,90.88
2023-03-03T06:13:34.406Z,91.41
2023-03-03T06:23:08.906Z,91.61
2023-03-03T06:32:40.084Z,91.21
2023-03-03T06:42:13.672Z,99.10
2023-03-03T06:51:47.318Z,100.00
2023-03-03T07:01:21.011Z,100.00
2023-03-03T07:10:54.279Z,100.00
2023-03-03T07:30:04.293Z,100.00
2023-03-03T07:39:40.338Z,100.00
2023-03-03T07:49:10.497Z,100.00
2023-03-03T07:58:44.442Z,100.00
2023-03-03T08:08:22.145Z,99.53
2023-03-03T08:17:51.182Z,98.19
2023-03-03T08:27:25.131Z,96.98
2023-03-03T08:28:27.612Z,96.97
2023-03-03T08:38:00.109Z,95.63
2023-03-03T08:47:33.372Z,94.10
2023-03-03T08:48:35.833Z,93.78
2023-03-03T08:58:09.158Z,91.42
2023-03-03T08:59:13.172Z,91.46
2023-03-03T09:00:15.502Z,91.35
2023-03-03T09:01:17.847Z,90.65
2023-03-03T09:02:21.715Z,90.38
2023-03-03T09:03:24.104Z,89.79
2023-03-03T09:12:56.032Z,88.10
2023-03-03T09:13:58.343Z,88.21
2023-03-03T09:15:00.866Z,88.25
2023-03-03T09:16:03.268Z,88.09
2023-03-03T09:17:05.583Z,87.37
2023-03-03T09:18:10.714Z,87.26
2023-03-03T09:19:12.838Z,87.09
2023-03-03T09:20:15.236Z,86.82
2023-03-03T09:21:17.680Z,86.37
2023-03-03T09:22:23.886Z,86.09
2023-03-03T09:23:26.100Z,85.76
2023-03-03T09:24:28.414Z,85.16
2023-03-03T09:25:30.729Z,85.48
2023-03-03T09:26:33.415Z,85.45
2023-03-03T09:36:04.284Z,84.60
2023-03-03T09:37:06.583Z,84.59
2023-03-03T09:38:09.005Z,84.26
2023-03-03T09:39:11.433Z,84.00
2023-03-03T09:40:15.495Z,84.28
2023-03-03T09:41:17.782Z,83.84
2023-03-03T09:42:20.213Z,83.73
2023-03-03T09:43:22.568Z,83.11
2023-03-03T09:44:24.919Z,83.06
2023-03-03T09:45:28.922Z,82.58
2023-03-03T09:46:31.257Z,82.46
2023-03-03T09:47:33.688Z,82.32
2023-03-03T09:48:37.681Z,82.35
2023-03-03T09:49:40.011Z,82.23
2023-03-03T09:50:44.290Z,82.28
2023-03-03T09:51:47.917Z,81.54
2023-03-03T09:52:51.857Z,81.69
2023-03-03T09:53:55.631Z,81.05
2023-03-03T09:54:57.931Z,81.19
2023-03-03T09:56:01.945Z,81.43
2023-03-03T09:57:04.201Z,81.17
2023-03-03T09:58:10.714Z,80.88
2023-03-03T10:07:38.062Z,80.11
2023-03-03T10:08:40.608Z,79.57
2023-03-03T10:09:42.961Z,78.22
2023-03-03T10:10:46.977Z,79.23
2023-03-03T10:11:50.886Z,78.93
2023-03-03T10:12:54.790Z,78.02
2023-03-03T10:13:58.672Z,78.43
2023-03-03T10:15:01.028Z,78.08
2023-03-03T10:16:04.141Z,77.81
2023-03-03T10:17:07.449Z,78.27
2023-03-03T10:18:09.775Z,77.96
2023-03-03T10:19:12.066Z,77.50
2023-03-03T10:20:14.424Z,76.93
2023-03-03T10:21:16.798Z,76.73
2023-03-03T10:22:19.238Z,75.95
2023-03-03T10:23:21.690Z,76.07
2023-03-03T10:24:24.063Z,76.55
2023-03-03T10:25:28.020Z,76.67
2023-03-03T10:26:43.727Z,76.00
2023-03-03T10:27:32.720Z,75.47
2023-03-03T10:28:35.304Z,75.12
2023-03-03T10:29:37.635Z,75.95
2023-03-03T10:30:48.494Z,75.95
2023-03-03T10:31:42.290Z,75.25
2023-03-03T10:32:44.849Z,76.33
2023-03-03T10:33:48.964Z,76.06
2023-03-03T10:34:51.041Z,76.05
2023-03-03T10:36:06.126Z,75.95
2023-03-03T10:36:55.897Z,75.41
2023-03-03T10:37:59.804Z,75.62
2023-03-03T10:39:03.694Z,75.62
2023-03-03T10:40:05.927Z,74.92
2023-03-03T10:41:08.294Z,74.60
2023-03-03T10:42:12.262Z,74.05
2023-03-03T10:43:29.636Z,74.26
2023-03-03T10:44:18.473Z,74.45
2023-03-03T10:45:20.897Z,74.83
2023-03-03T10:46:23.263Z,73.49
2023-03-03T10:47:25.595Z,74.49
2023-03-03T10:48:29.625Z,74.24
2023-03-03T10:49:31.924Z,74.02
2023-03-03T10:50:34.354Z,74.11
2023-03-03T10:51:36.767Z,73.67
2023-03-03T10:52:39.214Z,73.25
2023-03-03T10:53:41.573Z,72.33
2023-03-03T10:54:44.015Z,71.92
2023-03-03T10:55:46.442Z,71.62
2023-03-03T10:56:53.140Z,72.10
2023-03-03T10:57:51.311Z,71.91
2023-03-03T10:58:53.786Z,71.54
2023-03-03T10:59:57.708Z,72.18
2023-03-03T11:01:00.540Z,72.17
2023-03-03T11:02:02.616Z,72.47
2023-03-03T11:03:05.039Z,71.96
2023-03-03T11:04:09.225Z,72.05
2023-03-03T11:05:11.472Z,72.66
2023-03-03T11:06:15.631Z,71.60
2023-03-03T11:07:19.490Z,71.43
2023-03-03T11:08:21.855Z,71.55
2023-03-03T11:09:24.212Z,72.20
2023-03-03T11:10:26.628Z,71.18
2023-03-03T11:11:30.712Z,70.88
2023-03-03T11:12:34.502Z,70.79
2023-03-03T11:13:36.809Z,70.09
2023-03-03T11:14:42.198Z,70.70
2023-03-03T11:15:44.319Z,70.54
2023-03-03T11:16:46.642Z,70.36
2023-03-03T11:17:49.060Z,69.94
2023-03-03T11:18:51.482Z,70.11
2023-03-03T11:19:53.909Z,69.93
2023-03-03T11:20:56.355Z,70.08
2023-03-03T11:21:58.790Z,70.50
2023-03-03T11:23:01.222Z,70.25
2023-03-03T11:24:05.248Z,70.13
2023-03-03T11:25:07.518Z,69.87
2023-03-03T11:26:09.955Z,70.26
2023-03-03T11:27:13.874Z,69.55
2023-03-03T11:28:16.417Z,68.67
2023-03-03T11:29:18.777Z,68.68
2023-03-03T11:30:21.254Z,67.93
2023-03-03T11:31:25.124Z,67.76
2023-03-03T11:32:28.149Z,67.32
2023-03-03T11:33:30.318Z,68.15
2023-03-03T11:34:32.790Z,68.46
2023-03-03T11:35:36.863Z,68.32
2023-03-03T11:36:40.641Z,68.25
2023-03-03T11:37:43.116Z,67.11
2023-03-03T11:38:45.711Z,66.59
2023-03-03T11:39:48.096Z,66.27
2023-03-03T11:40:52.148Z,66.37
2023-03-03T11:41:54.420Z,66.31
2023-03-03T11:42:56.669Z,66.48
2023-03-03T11:43:59.126Z,67.32
2023-03-03T11:45:01.545Z,67.05
2023-03-03T11:46:05.544Z,67.28
2023-03-03T11:47:08.604Z,67.49
2023-03-03T11:48:10.856Z,67.28
2023-03-03T11:49:13.287Z,67.37
2023-03-03T11:50:15.757Z,67.73
2023-03-03T11:51:18.144Z,66.15
2023-03-03T11:52:20.376Z,66.88
2023-03-03T11:53:24.432Z,66.44
2023-03-03T11:54:26.744Z,65.74
2023-03-03T11:55:30.778Z,64.09
2023-03-03T11:56:34.649Z,64.62
2023-03-03T11:57:36.905Z,65.04
2023-03-03T11:58:40.885Z,65.78
2023-03-03T11:59:43.066Z,65.25
2023-03-03T12:00:45.494Z,65.16
2023-03-03T12:01:49.528Z,66.27
2023-03-03T12:02:53.583Z,66.04
2023-03-03T12:03:57.275Z,65.98
2023-03-03T12:04:59.678Z,65.14
2023-03-03T12:06:02.043Z,64.93
2023-03-03T12:07:16.789Z,65.47
2023-03-03T12:08:06.744Z,65.53
2023-03-03T12:09:10.796Z,64.70
2023-03-03T12:10:13.155Z,64.68
2023-03-03T12:11:15.601Z,64.11
2023-03-03T12:12:18.093Z,64.42
2023-03-03T12:13:21.981Z,64.27
2023-03-03T12:14:24.297Z,64.19
2023-03-03T12:15:28.134Z,63.80
2023-03-03T12:16:30.455Z,62.50
2023-03-03T12:17:34.393Z,63.76
2023-03-03T12:18:38.402Z,63.13
2023-03-03T12:19:43.479Z,63.19
2023-03-03T12:20:47.170Z,62.62
2023-03-03T12:21:49.556Z,63.03
2023-03-03T12:23:04.580Z,62.28
2023-03-03T12:23:55.848Z,63.32
2023-03-03T12:24:58.220Z,64.23
2023-03-03T12:26:00.637Z,62.79
2023-03-03T12:27:03.058Z,64.00
2023-03-03T12:28:07.074Z,63.54
2023-03-03T12:29:09.555Z,63.42
2023-03-03T12:30:13.431Z,63.62
2023-03-03T12:31:15.778Z,62.73
2023-03-03T12:32:18.329Z,63.80
2023-03-03T12:33:22.187Z,61.75
2023-03-03T12:34:26.091Z,61.15
2023-03-03T12:35:28.482Z,62.58
2023-03-03T12:36:30.899Z,63.49
2023-03-03T12:37:33.411Z,63.45
2023-03-03T12:38:40.831Z,64.34
2023-03-03T12:39:42.816Z,63.11
2023-03-03T12:40:45.232Z,61.96
2023-03-03T12:41:47.722Z,62.54
2023-03-03T12:42:50.089Z,63.71
2023-03-03T12:43:52.552Z,63.03
2023-03-03T12:44:56.599Z,63.24
2023-03-03T12:45:58.934Z,63.17
2023-03-03T12:47:01.469Z,62.71
2023-03-03T12:48:05.446Z,62.28
2023-03-03T12:49:09.327Z,61.26
2023-03-03T12:50:11.558Z,61.27
2023-03-03T12:51:14.058Z,60.56
2023-03-03T12:52:16.460Z,59.84
2023-03-03T12:53:20.585Z,60.66
2023-03-03T12:54:22.743Z,61.60
2023-03-03T12:55:25.020Z,60.53
2023-03-03T12:56:27.357Z,61.14
2023-03-03T12:57:29.829Z,61.82
2023-03-03T12:58:33.854Z,60.81
2023-03-03T12:59:36.296Z,60.38
2023-03-03T13:00:40.130Z,60.02
2023-03-03T13:01:42.502Z,60.60
2023-03-03T13:02:44.814Z,60.68
2023-03-03T13:03:55.659Z,60.35
2023-03-03T13:04:52.828Z,61.42
2023-03-03T13:05:56.771Z,60.75
2023-03-03T13:07:00.704Z,59.86
2023-03-03T13:08:03.028Z,59.73
2023-03-03T13:09:05.642Z,61.35
2023-03-03T13:10:12.468Z,60.99
2023-03-03T13:11:16.084Z,62.23
2023-03-03T13:12:18.435Z,61.36
2023-03-03T13:13:24.325Z,58.96
2023-03-03T13:14:26.314Z,58.12
2023-03-03T13:15:32.426Z,57.71
2023-03-03T13:16:40.921Z,57.58
2023-03-03T13:17:36.455Z,57.57
2023-03-03T13:18:38.585Z,58.36
2023-03-03T13:19:43.774Z,58.16
2023-03-03T13:20:46.109Z,59.34
2023-03-03T13:21:48.529Z,60.55
2023-03-03T13:22:52.675Z,60.19
2023-03-03T13:23:55.165Z,60.39
2023-03-03T13:25:01.961Z,58.04
2023-03-03T13:26:05.851Z,58.39
2023-03-03T13:27:08.210Z,58.20
2023-03-03T13:28:15.766Z,57.79
2023-03-03T13:29:19.571Z,59.94
2023-03-03T13:30:25.666Z,58.31
2023-03-03T13:31:29.470Z,56.33
2023-03-03T13:32:32.035Z,56.26
2023-03-03T13:33:34.053Z,55.98
2023-03-03T13:34:39.338Z,56.88
2023-03-03T13:35:41.577Z,57.02
2023-03-03T13:36:44.113Z,57.67
2023-03-03T13:37:46.381Z,57.66
2023-03-03T13:38:48.690Z,59.06
2023-03-03T13:39:54.023Z,57.63
2023-03-03T13:40:57.724Z,56.78
2023-03-03T13:42:02.928Z,56.43
2023-03-03T13:43:05.250Z,55.65
2023-03-03T13:44:09.064Z,54.55
2023-03-03T13:45:16.613Z,54.48
2023-03-03T13:46:19.207Z,54.61
2023-03-03T13:47:28.081Z,53.85
2023-03-03T13:48:30.404Z,53.52
2023-03-03T13:49:34.460Z,54.91
2023-03-03T13:50:36.728Z,54.86
2023-03-03T13:51:39.242Z,55.47
2023-03-03T13:52:43.183Z,54.96
2023-03-03T13:53:45.338Z,54.24
2023-03-03T13:54:49.441Z,55.16
2023-03-03T13:55:51.731Z,55.45
2023-03-03T13:56:54.197Z,56.22
2023-03-03T13:57:56.503Z,56.13
2023-03-03T13:58:58.807Z,55.06
2023-03-03T14:00:02.775Z,54.02
2023-03-03T14:01:05.131Z,53.56
2023-03-03T14:02:09.158Z,54.35
2023-03-03T14:03:11.253Z,54.87
2023-03-03T14:04:13.699Z,53.81
2023-03-03T14:05:16.081Z,54.47
2023-03-03T14:06:18.512Z,55.63
2023-03-03T14:07:21.017Z,56.92
2023-03-03T14:08:23.420Z,57.60
2023-03-03T14:09:25.840Z,56.04
2023-03-03T14:10:28.281Z,55.29
2023-03-03T14:11:30.772Z,56.69
2023-03-03T14:12:34.726Z,57.17
2023-03-03T14:13:37.050Z,55.21
2023-03-03T14:14:41.032Z,55.06
2023-03-03T14:15:43.393Z,52.60
2023-03-03T14:16:46.016Z,53.74
2023-03-03T14:17:48.274Z,53.52
2023-03-03T14:18:50.755Z,51.85
2023-03-03T14:19:53.247Z,52.26
2023-03-03T14:20:57.200Z,52.97
2023-03-03T14:22:01.214Z,53.09
2023-03-03T14:23:03.488Z,51.54
2023-03-03T14:24:06.009Z,53.23
2023-03-03T14:25:10.280Z,51.87
2023-03-03T14:26:12.631Z,51.31
2023-03-03T14:27:15.054Z,51.05
2023-03-03T14:28:17.554Z,50.48
2023-03-03T14:29:21.532Z,50.32
2023-03-03T14:30:23.997Z,48.60
2023-03-03T14:31:28.793Z,49.34
2023-03-03T14:32:44.662Z,48.91
2023-03-03T14:33:33.496Z,49.56
2023-03-03T14:34:35.933Z,49.99
2023-03-03T14:35:38.377Z,49.74
2023-03-03T14:36:40.759Z,51.07
2023-03-03T14:37:44.773Z,50.21
2023-03-03T14:38:47.222Z,48.52
2023-03-03T14:39:49.611Z,48.22
2023-03-03T14:40:52.188Z,46.62
2023-03-03T14:41:54.509Z,47.63
2023-03-03T14:42:58.518Z,48.05
2023-03-03T14:44:00.879Z,47.60
2023-03-03T14:45:03.328Z,47.59
2023-03-03T14:46:07.420Z,47.62
2023-03-03T14:47:09.628Z,48.41
2023-03-03T14:48:12.119Z,48.85
2023-03-03T14:49:14.566Z,48.82
2023-03-03T14:50:18.543Z,48.15
2023-03-03T14:51:22.506Z,49.02
2023-03-03T14:52:24.789Z,48.42
2023-03-03T14:53:28.870Z,48.75
2023-03-03T14:54:31.191Z,48.60
2023-03-03T14:55:33.669Z,49.09
2023-03-03T14:56:39.197Z,47.74
2023-03-03T14:57:41.426Z,45.97
2023-03-03T14:58:43.885Z,47.53
2023-03-03T14:59:47.983Z,46.18
2023-03-03T15:00:51.927Z,47.03
2023-03-03T15:01:54.226Z,46.49
2023-03-03T15:02:56.809Z,46.59
2023-03-03T15:03:59.111Z,46.58
2023-03-03T15:05:01.705Z,45.82
2023-03-03T15:06:03.983Z,46.21
2023-03-03T15:07:06.524Z,46.61
2023-03-03T15:08:08.826Z,45.38
2023-03-03T15:09:11.318Z,45.26
2023-03-03T15:10:15.181Z,46.45
2023-03-03T15:11:17.524Z,46.95
2023-03-03T15:12:19.965Z,46.63
2023-03-03T15:13:22.419Z,45.40
2023-03-03T15:14:24.820Z,44.37
2023-03-03T15:15:27.377Z,44.50
2023-03-03T15:16:29.596Z,43.49
2023-03-03T15:17:32.030Z,43.06
2023-03-03T15:18:34.463Z,43.61
2023-03-03T15:19:36.913Z,43.82
2023-03-03T15:20:40.950Z,43.71
2023-03-03T15:21:44.827Z,43.94
2023-03-03T15:22:47.271Z,44.25
2023-03-03T15:23:49.710Z,42.72
2023-03-03T15:24:53.712Z,42.92
2023-03-03T15:25:58.777Z,43.34
2023-03-03T15:27:01.663Z,43.42
2023-03-03T15:28:03.999Z,42.96
2023-03-03T15:29:06.386Z,42.45
2023-03-03T15:30:08.891Z,42.20
2023-03-03T15:31:11.338Z,42.50
2023-03-03T15:32:16.774Z,42.69
2023-03-03T15:33:18.903Z,42.57
2023-03-03T15:34:22.914Z,42.73
2023-03-03T15:35:25.220Z,41.21
2023-03-03T15:36:27.692Z,42.05
2023-03-03T15:37:30.161Z,41.78
2023-03-03T15:38:34.187Z,41.83
2023-03-03T15:39:36.536Z,39.83
2023-03-03T15:40:38.999Z,40.29
2023-03-03T15:41:41.377Z,40.74
2023-03-03T15:42:43.928Z,41.33
2023-03-03T15:43:47.877Z,42.16
2023-03-03T15:44:50.125Z,42.29
2023-03-03T15:45:52.703Z,42.42
2023-03-03T15:46:54.981Z,42.26
2023-03-03T15:47:57.288Z,41.81
2023-03-03T15:48:59.691Z,41.99
2023-03-03T15:50:02.382Z,41.75
2023-03-03T15:51:04.694Z,41.66
2023-03-03T15:52:07.379Z,40.71
2023-03-03T15:53:09.483Z,39.94
2023-03-03T15:54:13.623Z,40.01
2023-03-03T15:55:15.864Z,39.78
2023-03-03T15:56:18.207Z,40.37
2023-03-03T15:57:20.688Z,41.15
2023-03-03T15:58:23.031Z,40.99
2023-03-03T15:59:25.527Z,41.11
2023-03-03T16:00:27.709Z,42.06
2023-03-03T16:01:30.315Z,41.51
2023-03-03T16:02:34.857Z,40.45
2023-03-03T16:03:37.317Z,40.71
2023-03-03T16:04:39.712Z,41.12
2023-03-03T16:05:42.061Z,39.91
2023-03-03T16:06:44.511Z,40.47
2023-03-03T16:07:48.520Z,40.37
2023-03-03T16:08:50.829Z,40.58
2023-03-03T16:09:54.839Z,40.98
2023-03-03T16:10:57.083Z,41.23
2023-03-03T16:12:01.123Z,41.12
2023-03-03T16:13:03.458Z,40.83
2023-03-03T16:14:05.632Z,41.97
2023-03-03T16:15:08.086Z,42.28
2023-03-03T16:16:10.524Z,41.99
2023-03-03T16:17:14.341Z,42.49
2023-03-03T16:18:16.686Z,43.28
2023-03-03T16:19:18.966Z,43.93
2023-03-03T16:20:21.380Z,44.30
2023-03-03T16:21:23.771Z,44.46
2023-03-03T16:22:26.289Z,44.81
2023-03-03T16:23:28.819Z,44.80
2023-03-03T16:24:31.093Z,44.96
2023-03-03T16:25:33.335Z,45.56
2023-03-03T16:26:37.347Z,46.09
2023-03-03T16:27:39.627Z,46.10
2023-03-03T16:28:42.107Z,46.93
2023-03-03T16:29:44.501Z,46.86
2023-03-03T16:30:48.678Z,46.62
2023-03-03T16:31:50.867Z,45.88
2023-03-03T16:32:52.957Z,47.72
2023-03-03T16:33:56.964Z,48.03
2023-03-03T16:35:00.863Z,47.66
2023-03-03T16:36:03.246Z,47.69
2023-03-03T16:37:05.667Z,47.96
2023-03-03T16:38:07.961Z,48.32
2023-03-03T16:39:10.307Z,48.57
2023-03-03T16:40:14.411Z,48.65
2023-03-03T16:41:17.669Z,49.93
2023-03-03T16:42:19.944Z,49.47
2023-03-03T16:43:22.349Z,49.90
2023-03-03T16:44:24.889Z,50.01
2023-03-03T16:45:28.723Z,50.12
2023-03-03T16:46:34.731Z,50.46
2023-03-03T16:47:36.930Z,50.64
2023-03-03T16:48:40.844Z,51.30
2023-03-03T16:49:45.986Z,51.99
2023-03-03T16:50:51.206Z,51.05
2023-03-03T16:51:55.163Z,50.35
2023-03-03T16:52:57.577Z,50.90
2023-03-03T16:53:59.834Z,50.21
2023-03-03T16:55:02.229Z,50.94
2023-03-03T16:56:06.287Z,49.92
2023-03-03T16:57:08.543Z,50.87
2023-03-03T16:58:10.945Z,52.07
2023-03-03T16:59:13.348Z,52.45
2023-03-03T17:00:15.824Z,53.04
2023-03-03T17:01:18.320Z,53.34
2023-03-03T17:02:20.627Z,54.08
2023-03-03T17:03:24.638Z,54.28
2023-03-03T17:12:53.387Z,59.88
2023-03-03T17:13:55.782Z,59.84
2023-03-03T17:23:27.864Z,64.02
2023-03-03T17:24:30.267Z,64.36
2023-03-03T17:34:01.990Z,66.34
2023-03-03T17:43:34.955Z,68.79
2023-03-03T17:53:09.602Z,70.30
2023-03-03T18:02:43.042Z,71.50
2023-03-03T18:12:15.956Z,73.62
2023-03-03T18:21:47.092Z,73.50
2023-03-03T18:31:21.862Z,74.81
2023-03-03T18:40:53.283Z,76.15
2023-03-03T18:50:26.490Z,77.12
2023-03-03T18:51:30.428Z,77.86
2023-03-03T19:01:01.278Z,79.25
2023-03-03T19:10:34.399Z,81.27
2023-03-03T19:20:07.359Z,83.46
2023-03-03T19:21:09.873Z,83.98
2023-03-03T19:22:12.288Z,84.11
2023-03-03T19:31:45.370Z,85.66
2023-03-03T19:41:17.594Z,87.15
2023-03-03T19:50:50.522Z,88.80
2023-03-03T20:00:23.441Z,89.55
2023-03-03T20:09:57.739Z,90.26
2023-03-03T20:19:29.238Z,90.74
2023-03-03T20:29:02.518Z,90.87
2023-03-03T20:38:35.205Z,91.85
2023-03-03T20:48:09.882Z,93.16
2023-03-03T20:57:42.986Z,93.92
2023-03-03T21:07:14.274Z,94.66
2023-03-03T21:16:48.615Z,95.91
2023-03-03T21:26:21.543Z,96.39
2023-03-03T21:35:52.787Z,96.67
2023-03-03T21:45:25.537Z,97.63
2023-03-03T21:54:58.528Z,97.27
2023-03-03T22:04:31.234Z,97.56
2023-03-03T22:14:04.083Z,98.42
2023-03-03T22:23:36.951Z,98.56
2023-03-03T22:33:11.661Z,99.48
2023-03-03T22:42:43.019Z,100.00
2023-03-03T22:52:15.932Z,100.00
2023-03-03T23:01:50.604Z,100.00
2023-03-03T23:11:23.829Z,100.00
2023-03-03T23:20:54.917Z,100.00
2023-03-03T23:30:28.578Z,100.00
2023-03-03T23:40:01.696Z,100.00
2023-03-03T23:49:35.235Z,100.00
2023-03-03T23:59:08.232Z,100.00
